Time;durP1;ratioP1;P1;durP2;ratioP2;P2;SDS_P1;SDS_P2;PMS_P1;PMS_P2;Temp;Humidity;BMP_temperature;BMP_pressure;BME280_temperature;BME280_humidity;BME280_pressure;Samples;Min_cycle;Max_cycle;Signal;HPM_P1;HPM_P2
2024/03/03 00:00:41;;;;;;;34.30;23.80;;;7.40;99.90;;;-141.84;99.25;97676.88;5071071;28;20227;-61
2024/03/03 00:03:09;;;;;;;37.77;24.40;;;7.40;99.90;;;-141.84;98.93;96350.63;5071541;28;20193;-60
2024/03/03 00:05:37;;;;;;;36.57;24.77;;;7.40;99.90;;;-141.84;98.89;96350.63;5070924;28;20259;-61
2024/03/03 00:08:06;;;;;;;39.27;26.07;;;7.40;99.90;;;-141.84;99.91;98472.84;5073241;28;20228;-60
2024/03/03 00:10:34;;;;;;;35.80;24.80;;;7.30;99.90;;;-141.84;100.00;102455.00;5072622;28;20232;-61
2024/03/03 00:13:03;;;;;;;37.23;25.60;;;7.30;99.90;;;-141.84;99.73;99003.56;5062881;28;20712;-60
2024/03/03 00:15:33;;;;;;;37.30;26.33;;;7.30;99.90;;;-141.84;99.16;97942.19;5070233;28;20228;-60
2024/03/03 00:18:05;;;;;;;41.60;26.70;;;7.40;99.90;;;-141.84;99.90;98738.19;5071334;28;20193;-60
2024/03/03 00:20:33;;;;;;;33.43;24.93;;;7.30;99.90;;;-141.84;100.00;98738.19;5070748;28;20221;-60
2024/03/03 00:23:06;;;;;;;38.30;26.40;;;7.30;99.90;;;-141.84;99.88;98738.19;5072271;28;20247;-60
2024/03/03 00:25:34;;;;;;;35.97;25.70;;;7.30;99.90;;;-141.84;99.40;98472.84;5071521;28;20216;-60
2024/03/03 00:28:05;;;;;;;35.13;25.60;;;7.30;99.90;;;-141.84;100.00;99268.97;5072118;28;20229;-59
2024/03/03 00:30:35;;;;;;;37.97;26.00;;;7.30;99.90;;;-141.84;100.00;100596.16;5067191;28;20195;-60
2024/03/03 00:33:05;;;;;;;35.97;26.40;;;7.30;99.90;;;-141.84;100.00;100861.66;5071673;28;20205;-61
2024/03/03 00:35:33;;;;;;;36.33;25.77;;;7.40;99.90;;;-141.84;99.79;99534.38;5069700;28;20220;-60
2024/03/03 00:38:06;;;;;;;36.77;27.40;;;7.40;99.90;;;-141.84;99.69;98207.50;5063071;28;20252;-60
2024/03/03 00:40:34;;;;;;;37.90;27.27;;;7.30;99.90;;;-141.84;100.00;99534.38;5069161;28;20307;-61
2024/03/03 00:43:02;;;;;;;36.77;27.27;;;7.30;99.90;;;-141.84;100.00;100065.22;5069667;28;20252;-61
2024/03/03 00:45:31;;;;;;;38.93;27.47;;;7.30;99.90;;;-141.84;100.00;101923.81;5070107;28;20255;-60
2024/03/03 00:48:03;;;;;;;36.30;26.90;;;7.30;99.90;;;-141.84;100.00;104048.94;5070045;28;20192;-61
2024/03/03 00:50:31;;;;;;;40.83;26.77;;;7.20;99.90;;;-141.84;100.00;105377.72;5069287;28;20236;-60
2024/03/03 00:53:00;;;;;;;36.63;26.53;;;7.20;99.90;;;-141.84;100.00;105111.94;5070642;28;20255;-61
2024/03/03 00:55:28;;;;;;;37.87;26.20;;;7.20;99.90;;;-141.84;100.00;103783.25;5068852;28;20244;-61
2024/03/03 00:57:57;;;;;;;36.27;26.80;;;7.20;99.90;;;-141.84;100.00;103517.56;5062338;28;20228;-60
2024/03/03 01:00:25;;;;;;;37.53;27.27;;;7.20;99.90;;;-141.84;100.00;105377.72;5069506;28;20201;-60
2024/03/03 01:02:54;;;;;;;34.87;25.73;;;7.20;99.90;;;-141.84;100.00;107238.72;5070364;28;20224;-61
2024/03/03 01:05:25;;;;;;;37.27;26.67;;;7.10;99.90;;;-141.84;100.00;110697.16;5073911;28;20243;-61
2024/03/03 01:07:53;;;;;;;36.30;27.53;;;7.00;99.90;;;-141.84;100.00;112560.63;5074109;28;20227;-60
2024/03/03 01:10:22;;;;;;;39.70;28.63;;;7.00;99.90;;;-141.84;100.00;111761.88;5073818;28;20442;-60
2024/03/03 01:12:50;;;;;;;39.03;28.00;;;7.00;99.90;;;-141.84;100.00;110963.31;5066670;28;20308;-60
2024/03/03 01:15:19;;;;;;;38.50;28.90;;;7.00;99.90;;;-141.84;100.00;112826.88;5072823;28;20189;-59
2024/03/03 01:17:48;;;;;;;39.40;28.00;;;6.90;99.90;;;-141.84;100.00;113625.81;5073985;28;20566;-60
2024/03/03 01:20:16;;;;;;;40.33;26.80;;;6.90;99.90;;;-141.84;100.00;113892.16;5073896;28;20311;-60
2024/03/03 01:22:45;;;;;;;44.80;29.43;;;6.90;99.90;;;-141.84;100.00;115490.59;5073322;28;20228;-60
2024/03/03 01:25:14;;;;;;;45.23;30.23;;;6.90;99.90;;;-141.84;100.00;116023.56;5072452;28;20266;-60
2024/03/03 01:27:42;;;;;;;41.87;29.37;;;6.80;99.90;;;-141.84;100.00;115224.16;5073256;28;20220;-59
2024/03/03 01:30:11;;;;;;;40.87;28.80;;;6.80;99.90;;;-141.84;100.00;114424.91;5073793;28;20189;-60
2024/03/03 01:32:41;;;;;;;41.53;28.97;;;6.90;99.90;;;-141.84;100.00;114957.72;5074166;28;20256;-61
2024/03/03 01:35:11;;;;;;;39.07;28.80;;;6.80;99.90;;;-141.84;100.00;116023.56;5074008;28;20435;-62
2024/03/03 01:37:42;;;;;;;41.70;29.40;;;6.80;99.90;;;-141.84;100.00;114158.53;5065238;28;20268;-61
2024/03/03 01:40:12;;;;;;;40.37;28.67;;;6.90;99.90;;;-141.84;100.00;112294.34;5072916;28;20247;-60
2024/03/03 01:42:43;;;;;;;39.23;28.30;;;6.80;99.90;;;-141.84;100.00;114424.91;5072759;28;20228;-61
2024/03/03 01:45:22;;;;;;;39.70;28.77;;;6.80;99.90;;;-141.84;100.00;116290.06;5046716;28;20247;-61
2024/03/03 01:47:52;;;;;;;44.20;31.60;;;6.70;99.90;;;-141.84;100.00;117356.25;5040244;28;20536;-60
2024/03/03 01:50:25;;;;;;;38.90;28.20;;;6.70;99.90;;;-141.84;100.00;116023.56;5074349;28;20220;-59
2024/03/03 01:52:55;;;;;;;41.70;29.63;;;6.80;99.90;;;-141.84;100.00;116290.06;5071810;28;20213;-61
2024/03/03 01:55:25;;;;;;;47.37;29.27;;;6.70;99.90;;;-141.84;100.00;116823.13;5074076;28;20338;-60
2024/03/03 01:58:03;;;;;;;41.13;29.30;;;6.70;99.90;;;-141.84;100.00;114957.72;5064458;28;20229;-61
2024/03/03 02:00:35;;;;;;;42.73;29.20;;;6.70;99.90;;;-141.84;100.00;116023.56;5073536;28;20556;-61
2024/03/03 02:03:08;;;;;;;43.87;29.37;;;6.70;99.90;;;-141.84;100.00;116823.13;5076181;28;20200;-61
2024/03/03 02:05:37;;;;;;;43.90;29.80;;;6.60;99.90;;;-141.84;100.00;117356.25;5071292;28;20252;-61
2024/03/03 02:08:07;;;;;;;45.67;30.33;;;6.60;99.90;;;-141.84;100.00;118422.72;5071525;28;20261;-59
2024/03/03 02:10:37;;;;;;;41.20;30.60;;;6.60;99.90;;;-141.84;100.00;118956.03;5072489;28;20573;-60
2024/03/03 02:13:05;;;;;;;46.07;30.90;;;6.60;99.90;;;-141.84;100.00;119222.75;5072569;28;20656;-60
2024/03/03 02:15:34;;;;;;;44.10;30.17;;;6.60;99.90;;;-141.84;100.00;118956.03;5071825;28;20204;-60
2024/03/03 02:18:02;;;;;;;43.80;30.20;;;6.60;99.90;;;-141.84;100.00;119222.75;5074107;28;20213;-60
2024/03/03 02:20:30;;;;;;;48.50;32.10;;;6.50;99.90;;;-141.84;100.00;119224.81;5071964;28;20250;-59
2024/03/03 02:23:04;;;;;;;45.60;29.93;;;6.50;99.90;;;-141.84;100.00;119222.75;5071963;28;20712;-61
2024/03/03 02:25:32;;;;;;;47.77;31.77;;;6.50;99.90;;;-141.84;100.00;119222.75;5072314;28;20264;-61
2024/03/03 02:28:02;;;;;;;45.27;31.20;;;6.50;99.90;;;-141.84;100.00;118956.03;5072592;28;20282;-61
2024/03/03 02:30:31;;;;;;;46.07;31.10;;;6.50;99.90;;;-141.84;100.00;118689.38;5022101;28;20197;-60
2024/03/03 02:33:00;;;;;;;45.27;31.30;;;6.60;99.90;;;-141.84;100.00;118422.72;5073969;28;20243;-60
2024/03/03 02:35:29;;;;;;;44.33;30.90;;;6.50;99.90;;;-141.84;100.00;118956.03;5071566;28;20248;-60
2024/03/03 02:37:58;;;;;;;46.10;32.60;;;6.50;99.90;;;-141.84;100.00;119224.81;5071722;28;20248;-60
2024/03/03 02:40:27;;;;;;;49.17;32.77;;;6.50;99.90;;;-141.84;100.00;119224.81;5072881;28;20915;-60
2024/03/03 02:42:55;;;;;;;50.77;33.10;;;6.50;99.90;;;-141.84;100.00;119224.81;5072617;28;20228;-61
2024/03/03 02:45:25;;;;;;;47.83;32.97;;;6.50;99.90;;;-141.84;100.00;119224.81;5074924;28;20204;-61
2024/03/03 02:47:55;;;;;;;48.40;33.00;;;6.40;99.90;;;-141.84;100.00;119224.81;5073126;28;20695;-61
2024/03/03 02:50:24;;;;;;;51.13;33.43;;;6.50;99.90;;;-141.84;100.00;119224.81;5070499;28;20224;-60
2024/03/03 02:52:52;;;;;;;44.70;31.87;;;6.50;99.90;;;-141.84;100.00;119224.81;5071028;28;20248;-59
2024/03/03 02:55:22;;;;;;;46.20;32.13;;;6.50;99.90;;;-141.84;100.00;119224.81;5072556;28;20312;-60
2024/03/03 02:57:52;;;;;;;45.87;31.73;;;6.50;99.90;;;-141.84;100.00;119224.81;5072753;28;20248;-61
2024/03/03 03:00:24;;;;;;;44.80;31.63;;;6.60;99.90;;;-141.84;100.00;119224.81;5070349;28;20230;-60
2024/03/03 03:02:52;;;;;;;47.53;31.23;;;6.50;99.90;;;-141.84;100.00;119224.81;5072466;28;20613;-60
2024/03/03 03:05:21;;;;;;;46.57;32.13;;;6.60;99.90;;;-141.84;100.00;119224.81;5071953;28;20224;-59
2024/03/03 03:07:49;;;;;;;49.27;32.00;;;6.60;99.90;;;-141.84;100.00;119224.81;5027377;28;20605;-59
2024/03/03 03:10:18;;;;;;;45.37;31.80;;;6.60;99.90;;;-141.84;100.00;119222.75;5072990;28;20224;-60
2024/03/03 03:12:47;;;;;;;50.03;33.33;;;6.60;99.90;;;-141.84;100.00;119222.75;5073122;28;20227;-59
2024/03/03 03:15:17;;;;;;;43.37;31.03;;;6.60;99.90;;;-141.84;100.00;119224.81;5073982;28;20295;-60
2024/03/03 03:17:47;;;;;;;44.97;31.27;;;6.60;99.90;;;-141.84;100.00;119224.81;5072228;28;20295;-59
2024/03/03 03:20:16;;;;;;;45.00;32.17;;;6.60;99.90;;;-141.84;100.00;119224.81;5072661;28;20243;-60
2024/03/03 03:22:44;;;;;;;47.70;31.60;;;6.50;99.90;;;-141.84;100.00;119224.81;5072018;28;20718;-60
2024/03/03 03:25:12;;;;;;;45.03;30.17;;;6.50;99.90;;;-141.84;100.00;119224.81;5063351;28;20232;-60
2024/03/03 03:27:44;;;;;;;42.40;31.00;;;6.50;99.90;;;-141.84;100.00;119224.81;5072133;28;20257;-60
2024/03/03 03:30:13;;;;;;;44.17;30.70;;;6.40;99.90;;;-141.84;100.00;119224.81;5072578;28;20189;-62
2024/03/03 03:32:43;;;;;;;46.83;31.03;;;6.40;99.90;;;-141.84;100.00;119224.81;5070767;28;20240;-60
2024/03/03 03:35:11;;;;;;;45.47;31.17;;;6.40;99.90;;;-141.84;100.00;119224.81;5070398;28;20579;-60
2024/03/03 03:37:40;;;;;;;44.10;30.47;;;6.40;99.90;;;-141.84;100.00;119224.81;5063132;28;20283;-60
2024/03/03 03:40:09;;;;;;;45.30;30.63;;;6.50;99.90;;;-141.84;100.00;119224.81;5071767;28;20529;-61
2024/03/03 03:42:38;;;;;;;42.87;29.57;;;6.50;99.90;;;-141.84;100.00;119224.81;5072820;28;20516;-60
2024/03/03 03:45:10;;;;;;;43.47;29.77;;;6.50;99.90;;;-141.84;100.00;119224.81;5071285;28;20267;-60
2024/03/03 03:47:38;;;;;;;42.43;29.57;;;6.50;99.90;;;-141.84;100.00;119224.81;5071164;28;20285;-60
2024/03/03 03:50:09;;;;;;;40.23;29.13;;;6.50;99.90;;;-141.84;100.00;119224.81;5069422;28;20239;-59
2024/03/03 03:52:37;;;;;;;41.93;29.27;;;6.40;99.90;;;-141.84;100.00;119224.81;5070638;28;20668;-59
2024/03/03 03:55:06;;;;;;;43.43;28.80;;;6.40;99.90;;;-141.84;100.00;119224.81;5071537;28;20678;-60
2024/03/03 03:57:35;;;;;;;45.97;30.30;;;6.40;99.90;;;-141.84;100.00;119224.81;5070245;28;20274;-60
2024/03/03 04:00:05;;;;;;;43.67;29.17;;;6.40;99.90;;;-141.84;100.00;119224.81;5071221;28;20287;-60
2024/03/03 04:02:33;;;;;;;41.93;29.67;;;6.40;99.90;;;-141.84;100.00;119224.81;5069667;28;20748;-60
2024/03/03 04:05:05;;;;;;;40.57;28.97;;;6.50;99.90;;;-141.84;100.00;118956.03;5069570;28;20244;-60
2024/03/03 04:07:35;;;;;;;40.07;28.63;;;6.50;99.90;;;-141.84;100.00;119224.81;5069999;28;20563;-60
2024/03/03 04:10:03;;;;;;;45.27;30.03;;;6.40;99.90;;;-141.84;100.00;119224.81;5069927;28;20256;-60
2024/03/03 04:12:32;;;;;;;40.93;28.13;;;6.40;99.90;;;-141.84;100.00;119224.81;5057114;28;20192;-60
2024/03/03 04:15:01;;;;;;;40.20;27.17;;;6.40;99.90;;;-141.84;100.00;119224.81;5071024;28;20602;-61
2024/03/03 04:17:30;;;;;;;38.70;27.23;;;6.30;99.90;;;-141.84;100.00;119224.81;5067636;28;20256;-60
2024/03/03 04:19:58;;;;;;;44.73;28.90;;;6.40;99.90;;;-141.84;100.00;119224.81;5070506;28;20234;-59
2024/03/03 04:22:30;;;;;;;44.53;28.57;;;6.30;99.90;;;-141.84;100.00;119224.81;5070836;28;20731;-60
2024/03/03 04:25:02;;;;;;;40.97;27.57;;;6.30;99.90;;;-141.84;100.00;119224.81;5071848;28;20255;-61
2024/03/03 04:27:31;;;;;;;42.87;28.00;;;6.30;99.90;;;-141.84;100.00;119224.81;5026200;28;20725;-60
2024/03/03 04:30:01;;;;;;;41.50;27.97;;;6.20;99.90;;;-141.84;100.00;119224.81;5070200;28;20203;-60
2024/03/03 04:32:29;;;;;;;43.43;28.03;;;6.20;99.90;;;-141.84;100.00;119224.81;5060440;28;20281;-60
2024/03/03 04:35:04;;;;;;;39.63;27.13;;;6.20;99.90;;;-141.84;100.00;119224.81;5070160;28;20233;-60
2024/03/03 04:37:32;;;;;;;42.73;27.87;;;6.20;99.90;;;-141.84;100.00;119224.81;5071356;28;20224;-60
2024/03/03 04:40:02;;;;;;;40.40;27.50;;;6.10;99.90;;;-141.84;100.00;119224.81;5077802;28;20277;-60
2024/03/03 04:42:31;;;;;;;39.00;26.53;;;6.10;99.90;;;-141.84;100.00;119224.81;5075144;28;20208;-60
2024/03/03 04:44:59;;;;;;;42.33;27.33;;;6.10;99.90;;;-141.84;100.00;119224.81;5076498;28;20279;-60
2024/03/03 04:47:27;;;;;;;39.83;27.30;;;6.10;99.90;;;-141.84;100.00;119224.81;5078646;28;20759;-60
2024/03/03 04:49:56;;;;;;;38.27;26.77;;;6.10;99.90;;;-141.84;100.00;119224.81;5076118;28;20227;-61
2024/03/03 04:52:24;;;;;;;39.73;27.10;;;6.00;99.90;;;-141.84;100.00;119224.81;5076759;28;20772;-61
2024/03/03 04:54:52;;;;;;;42.03;27.47;;;6.00;99.90;;;-141.84;100.00;119224.81;5077842;28;20308;-60
2024/03/03 04:57:22;;;;;;;39.00;26.73;;;6.00;99.90;;;-141.84;100.00;119224.81;5076146;28;20189;-60
2024/03/03 04:59:50;;;;;;;40.53;28.27;;;5.90;99.90;;;-141.84;100.00;119224.81;5068443;28;20247;-60
2024/03/03 05:02:19;;;;;;;39.83;27.47;;;6.00;99.90;;;-141.84;100.00;119224.81;5075416;28;20256;-60
2024/03/03 05:04:51;;;;;;;40.43;27.63;;;6.00;99.90;;;-141.84;100.00;119224.81;5039624;28;20285;-60
2024/03/03 05:07:22;;;;;;;37.83;26.80;;;6.10;99.90;;;-141.84;100.00;119224.81;5077282;28;20244;-60
2024/03/03 05:09:52;;;;;;;37.97;25.60;;;6.10;99.90;;;-141.84;100.00;119224.81;5077559;28;20232;-60
2024/03/03 05:12:23;;;;;;;35.73;25.23;;;6.10;99.90;;;-141.84;100.00;119224.81;5076366;28;20199;-60
2024/03/03 05:14:51;;;;;;;36.63;26.00;;;6.00;99.90;;;-141.84;100.00;119224.81;5077484;28;20196;-58
2024/03/03 05:17:20;;;;;;;37.40;25.80;;;6.00;99.90;;;-141.84;100.00;119224.81;5075432;28;20220;-60
2024/03/03 05:19:49;;;;;;;36.17;25.23;;;6.00;99.90;;;-141.84;100.00;119224.81;5068451;28;21217;-61
2024/03/03 05:22:17;;;;;;;37.67;26.37;;;6.10;99.90;;;-141.84;100.00;119224.81;5078498;28;20318;-61
2024/03/03 05:24:45;;;;;;;37.83;25.90;;;6.10;99.90;;;-141.84;100.00;119224.81;5077189;28;20224;-60
2024/03/03 05:27:13;;;;;;;41.23;25.53;;;6.10;99.90;;;-141.84;100.00;119224.81;5077227;28;20207;-60
2024/03/03 05:29:46;;;;;;;36.00;26.17;;;6.10;99.90;;;-141.84;100.00;119224.81;5077977;28;20296;-60
2024/03/03 05:32:14;;;;;;;36.83;25.47;;;6.00;99.90;;;-141.84;100.00;119224.81;5077042;28;20228;-60
2024/03/03 05:34:44;;;;;;;34.03;24.67;;;6.00;99.90;;;-141.84;100.00;119224.81;5078544;28;20259;-60
2024/03/03 05:37:12;;;;;;;37.47;26.30;;;6.00;99.90;;;-141.84;100.00;119224.81;5073466;28;20224;-60
2024/03/03 05:39:43;;;;;;;34.57;24.00;;;6.00;99.90;;;-141.84;100.00;119224.81;5075142;28;20644;-60
2024/03/03 05:42:13;;;;;;;36.37;24.33;;;6.00;99.90;;;-141.84;100.00;119224.81;5077424;28;20196;-59
2024/03/03 05:44:43;;;;;;;38.00;24.90;;;6.00;99.90;;;-141.84;100.00;119224.81;5076575;28;20236;-60
2024/03/03 05:47:11;;;;;;;35.67;23.93;;;6.10;99.90;;;-141.84;100.00;119224.81;5077509;28;20228;-59
2024/03/03 05:49:40;;;;;;;32.70;23.53;;;6.00;99.90;;;-141.84;100.00;119224.81;5076067;28;20221;-60
2024/03/03 05:52:08;;;;;;;32.87;23.73;;;6.00;99.90;;;-141.84;100.00;119224.81;5074394;28;20739;-60
2024/03/03 05:54:37;;;;;;;34.27;23.93;;;6.00;99.90;;;-141.84;100.00;119224.81;5074147;28;20324;-59
2024/03/03 05:57:06;;;;;;;38.33;24.83;;;6.00;99.90;;;-141.84;100.00;119224.81;5073473;28;20669;-59
2024/03/03 05:59:34;;;;;;;38.30;24.93;;;5.90;99.90;;;-141.84;100.00;119224.81;5073851;28;20315;-59
2024/03/03 06:02:05;;;;;;;36.67;23.97;;;6.00;99.90;;;-141.84;100.00;119224.81;5074057;28;20255;-60
2024/03/03 06:04:35;;;;;;;33.63;23.30;;;6.00;99.90;;;-141.84;100.00;119224.81;5074119;28;20228;-60
2024/03/03 06:07:04;;;;;;;33.00;23.90;;;6.00;99.90;;;-141.84;100.00;119224.81;5073789;28;20921;-60
2024/03/03 06:09:33;;;;;;;31.17;22.60;;;6.00;99.90;;;-141.84;100.00;119224.81;5073006;28;20228;-60
2024/03/03 06:12:05;;;;;;;37.20;24.37;;;6.00;99.90;;;-141.84;100.00;119224.81;5069529;28;20675;-60
2024/03/03 06:14:34;;;;;;;32.77;23.60;;;6.00;99.90;;;-141.84;100.00;119224.81;5066271;28;20770;-60
2024/03/03 06:17:05;;;;;;;34.03;24.00;;;6.10;99.90;;;-141.84;100.00;119224.81;5073056;28;20216;-61
2024/03/03 06:19:33;;;;;;;32.53;22.40;;;6.00;99.90;;;-141.84;100.00;119224.81;5065765;28;20256;-61
2024/03/03 06:22:04;;;;;;;32.73;22.97;;;6.10;99.90;;;-141.84;100.00;119224.81;5073890;28;20255;-60
2024/03/03 06:24:32;;;;;;;33.63;23.27;;;6.10;99.90;;;-141.84;100.00;119224.81;5073045;28;20189;-59
2024/03/03 06:27:02;;;;;;;32.53;22.93;;;6.20;99.90;;;-141.84;100.00;119224.81;5073583;28;20291;-60
2024/03/03 06:29:30;;;;;;;32.30;22.10;;;6.20;99.90;;;-141.84;100.00;119222.75;5072984;28;20224;-59
2024/03/03 06:32:00;;;;;;;31.53;22.87;;;6.20;99.90;;;-141.84;100.00;119222.75;5073732;28;20293;-60
2024/03/03 06:34:34;;;;;;;30.80;21.27;;;6.30;99.90;;;-141.84;100.00;119224.81;5047806;28;20799;-60
2024/03/03 06:37:04;;;;;;;32.13;21.87;;;6.30;99.90;;;-141.84;100.00;119224.81;5071316;28;20224;-60
2024/03/03 06:39:32;;;;;;;28.20;21.10;;;6.30;99.90;;;-141.84;100.00;119222.75;5070295;28;20217;-60
2024/03/03 06:42:05;;;;;;;30.77;22.53;;;6.40;99.90;;;-141.84;100.00;118956.03;5071738;28;20189;-60
2024/03/03 06:44:33;;;;;;;31.53;21.83;;;6.40;99.90;;;-141.84;100.00;117889.44;5070730;28;20256;-60
2024/03/03 06:47:05;;;;;;;30.03;22.93;;;6.50;99.90;;;-141.84;100.00;117089.69;5072035;28;20247;-61
2024/03/03 06:49:35;;;;;;;33.27;22.13;;;6.60;99.90;;;-141.84;100.00;115757.06;5069632;28;20244;-60
2024/03/03 06:52:04;;;;;;;30.23;22.10;;;6.60;99.90;;;-141.84;100.00;114691.31;5071332;28;20311;-60
2024/03/03 06:54:32;;;;;;;27.90;21.63;;;6.70;99.90;;;-141.84;100.00;114424.91;5072797;28;20221;-61
2024/03/03 06:57:01;;;;;;;30.17;21.60;;;6.80;99.90;;;-141.84;100.00;113093.19;5073639;28;20250;-59
2024/03/03 06:59:34;;;;;;;27.93;21.00;;;6.80;99.90;;;-141.84;100.00;109632.72;5073619;28;20664;-60
2024/03/03 07:02:05;;;;;;;29.57;21.53;;;6.90;99.90;;;-141.84;100.00;107770.63;5071578;28;20220;-59
2024/03/03 07:04:35;;;;;;;27.93;21.03;;;7.00;99.90;;;-141.84;100.00;101923.81;5070649;28;20283;-60
2024/03/03 07:07:03;;;;;;;29.13;21.37;;;7.10;99.90;;;-141.84;98.23;94759.69;5071569;28;20619;-60
2024/03/03 07:09:32;;;;;;;28.60;20.27;;;7.20;99.90;;;-141.84;98.30;94229.53;5066145;28;20240;-60
2024/03/03 07:12:03;;;;;;;26.47;20.23;;;7.30;99.90;;;-141.84;98.75;95555.09;5072604;28;20201;-60
2024/03/03 07:14:32;;;;;;;25.50;19.70;;;7.30;99.90;;;-141.84;97.05;91579.72;5064765;28;20248;-59
2024/03/03 07:17:00;;;;;;;26.90;21.37;;;7.40;99.90;;;-141.84;94.04;83376.34;5073463;28;20255;-60
2024/03/03 07:19:29;;;;;;;23.17;19.03;;;7.50;99.90;;;-141.84;94.25;83112.00;5070727;28;20674;-61
2024/03/03 07:21:58;;;;;;;25.10;19.43;;;7.60;99.90;;;-141.84;94.60;84698.34;5070456;28;20278;-61
2024/03/03 07:24:27;;;;;;;26.67;20.20;;;7.60;99.90;;;-141.84;92.66;77828.72;5071666;28;20737;-60
2024/03/03 07:26:56;;;;;;;25.17;19.47;;;7.70;99.90;;;-141.84;93.23;80205.34;5072656;28;20601;-61
2024/03/03 07:29:25;;;;;;;26.03;19.90;;;7.70;99.90;;;-141.84;90.44;70443.78;5074263;28;20244;-61
2024/03/03 07:31:53;;;;;;;28.27;20.67;;;7.90;99.90;;;-141.84;90.34;68072.97;5071004;28;20278;-60
2024/03/03 07:34:22;;;;;;;24.70;19.20;;;7.90;99.90;;;-141.84;90.20;69653.38;5070430;28;20281;-60
2024/03/03 07:36:50;;;;;;;25.37;19.80;;;8.10;99.90;;;-141.84;87.83;57027.72;5070125;28;20255;-61
2024/03/03 07:39:22;;;;;;;26.83;20.23;;;8.20;99.90;;;-141.84;87.32;54402.44;5070358;28;20196;-60
2024/03/03 07:41:51;;;;;;;24.13;18.23;;;8.30;99.90;;;-141.84;87.72;56239.94;5065316;28;20189;-60
2024/03/03 07:44:22;;;;;;;27.63;19.43;;;8.30;99.90;;;-141.84;85.11;42871.75;5071588;28;20612;-60
2024/03/03 07:46:51;;;;;;;24.23;18.40;;;8.50;99.90;;;-141.84;84.28;34466.16;5071194;28;20303;-61
2024/03/03 07:49:21;;;;;;;23.97;19.13;;;8.50;99.90;;;-141.84;83.37;28976.31;5070535;28;20704;-59
2024/03/03 07:51:53;;;;;;;23.53;18.77;;;8.60;99.90;;;-141.84;83.09;28560.75;5070350;28;20231;-60
2024/03/03 07:54:23;;;;;;;23.60;18.00;;;8.80;99.90;;;-141.84;82.22;24824.78;5072829;28;20201;-61
2024/03/03 07:56:51;;;;;;;23.17;18.07;;;8.80;99.90;;;-141.84;79.32;19834.16;5070754;28;20201;-61
2024/03/03 07:59:23;;;;;;;25.53;19.00;;;9.00;99.90;;;-141.84;79.08;19513.06;5071543;28;20248;-60
2024/03/03 08:01:52;;;;;;;23.20;18.90;;;9.10;99.90;;;-141.84;78.75;19401.28;5070521;28;20252;-60
2024/03/03 08:04:21;;;;;;;22.27;17.37;;;9.20;99.90;;;-141.84;78.63;19378.94;5069842;28;20586;-60
2024/03/03 08:06:49;;;;;;;22.53;18.20;;;9.30;99.90;;;-141.84;76.33;18655.56;5070615;28;20731;-60
2024/03/03 08:09:18;;;;;;;21.60;18.03;;;9.40;99.90;;;-141.84;76.21;18647.44;5070396;28;20266;-60
2024/03/03 08:11:48;;;;;;;23.27;17.50;;;9.50;99.90;;;-141.84;76.24;18667.75;5071538;28;20668;-60
2024/03/03 08:14:16;;;;;;;21.60;17.47;;;9.60;99.90;;;-141.84;74.94;18501.16;5070494;28;20549;-60
2024/03/03 08:16:44;;;;;;;21.60;18.13;;;9.70;99.90;;;-141.84;74.52;18533.66;5070637;28;20273;-60
2024/03/03 08:19:12;;;;;;;22.43;17.77;;;9.80;99.90;;;-141.84;73.81;18482.88;5070968;28;20239;-60
2024/03/03 08:21:44;;;;;;;20.23;16.73;;;9.90;99.90;;;-141.84;72.50;18428.03;5070405;28;20583;-60
2024/03/03 08:24:12;;;;;;;22.03;17.60;;;10.00;99.90;;;-141.84;71.50;18389.41;5070923;28;20193;-60
2024/03/03 08:26:47;;;;;;;21.00;16.63;;;10.10;99.90;;;-141.84;71.15;18448.34;5069761;28;20228;-61
2024/03/03 08:29:17;;;;;;;20.80;17.07;;;10.30;99.90;;;-141.84;70.64;18401.59;5046281;28;20795;-60
2024/03/03 08:31:45;;;;;;;21.30;17.30;;;10.40;99.90;;;-141.84;69.98;18436.16;5070791;28;20229;-60
2024/03/03 08:34:13;;;;;;;22.00;17.33;;;10.50;99.90;;;-141.84;69.54;18411.75;5069579;28;20692;-62
2024/03/03 08:36:42;;;;;;;19.37;15.70;;;10.60;99.90;;;-141.84;68.79;18442.25;5069138;28;20232;-60
2024/03/03 08:39:11;;;;;;;18.67;16.33;;;10.70;99.90;;;-141.84;68.04;18385.34;5067124;28;20285;-60
2024/03/03 08:41:43;;;;;;;19.57;15.83;;;10.80;99.90;;;-141.84;66.73;18411.75;5069912;28;20240;-60
2024/03/03 08:44:11;;;;;;;19.80;15.90;;;10.90;99.90;;;-141.84;66.22;18425.97;5069116;28;20625;-61
2024/03/03 08:46:44;;;;;;;20.90;16.77;;;11.00;99.90;;;-141.84;66.53;18432.09;5070110;28;20649;-60
2024/03/03 08:49:12;;;;;;;20.97;17.23;;;11.10;99.90;;;-141.84;64.24;18470.69;5062255;28;20255;-59
2024/03/03 08:51:42;;;;;;;20.07;16.00;;;11.20;99.90;;;-141.84;64.38;18499.13;5069567;28;20252;-60
2024/03/03 08:54:10;;;;;;;18.67;15.33;;;11.30;99.90;;;-141.84;63.77;18454.44;5035299;28;20208;-60
2024/03/03 08:56:39;;;;;;;19.70;16.47;;;11.30;99.90;;;-141.84;63.33;18484.91;5071073;28;20242;-60
2024/03/03 08:59:07;;;;;;;19.17;16.30;;;11.40;99.90;;;-141.84;63.31;18470.69;5070077;28;20236;-61
2024/03/03 09:01:37;;;;;;;19.77;16.10;;;11.40;99.90;;;-141.84;61.86;18509.28;5069356;28;20734;-59
2024/03/03 09:04:07;;;;;;;19.60;16.03;;;11.60;99.90;;;-141.84;62.75;18513.34;5070534;28;20305;-61
2024/03/03 09:06:39;;;;;;;18.70;15.37;;;11.60;99.90;;;-141.84;63.03;18493.03;5070000;28;20296;-60
2024/03/03 09:09:10;;;;;;;21.03;16.40;;;11.60;99.90;;;-141.84;62.00;18493.03;5071306;28;20656;-62
2024/03/03 09:11:38;;;;;;;18.00;15.07;;;11.70;99.90;;;-141.84;61.14;18509.28;5067011;28;20214;-60
2024/03/03 09:14:09;;;;;;;20.17;16.23;;;11.80;99.90;;;-141.84;60.12;18570.22;5069161;28;20286;-60
2024/03/03 09:16:37;;;;;;;19.93;15.90;;;11.90;99.90;;;-141.84;60.25;18566.16;5070016;28;20220;-60
2024/03/03 09:19:08;;;;;;;21.50;16.40;;;12.00;99.90;;;-141.84;60.05;18537.72;5071118;28;20319;-61
2024/03/03 09:21:39;;;;;;;17.77;14.50;;;12.00;99.90;;;-141.84;59.64;18576.31;5069459;28;20239;-61
2024/03/03 09:24:09;;;;;;;17.42;15.25;;;12.10;99.90;;;-141.84;59.20;18580.41;5068979;28;20205;-61
2024/03/03 09:26:37;;;;;;;17.00;14.60;;;12.20;99.90;;;-141.84;59.13;18592.59;5072551;28;20736;-61
2024/03/03 09:29:04;;;;;;;20.58;15.75;;;12.20;99.90;;;-141.84;58.59;18566.16;5064796;28;20299;-61
2024/03/03 09:31:32;;;;;;;17.67;14.93;;;12.30;99.90;;;-141.84;57.80;18576.31;5073253;28;20224;-59
2024/03/03 09:34:01;;;;;;;18.92;14.27;;;12.30;99.90;;;-141.84;57.31;18608.84;5072237;28;20651;-65
2024/03/03 09:36:30;;;;;;;19.20;14.45;;;12.50;99.90;;;-141.84;56.99;18580.41;5072708;28;20199;-61
2024/03/03 09:38:58;;;;;;;17.55;14.75;;;12.50;99.90;;;-141.84;56.51;18621.03;5072454;28;20653;-60
2024/03/03 09:41:27;;;;;;;17.98;14.80;;;12.50;99.90;;;-141.84;56.85;18639.31;5071683;28;20639;-60
2024/03/03 09:44:08;;;;;;;16.38;14.32;;;12.50;99.90;;;-141.84;55.33;18643.38;5072034;28;20307;-60
2024/03/03 09:46:41;;;;;;;16.85;13.30;;;12.70;99.90;;;-141.84;56.36;18643.38;5070987;28;20225;-59
2024/03/03 09:49:17;;;;;;;19.02;14.82;;;12.70;99.90;;;-141.84;55.72;18663.69;5073335;28;20930;-60
2024/03/03 09:51:49;;;;;;;18.23;14.23;;;12.80;99.90;;;-141.84;54.38;18679.94;5071966;28;20665;-61
2024/03/03 09:54:19;;;;;;;17.35;14.32;;;12.90;99.90;;;-141.84;53.70;18700.25;5071291;28;20196;-61
2024/03/03 09:56:51;;;;;;;17.38;13.85;;;13.00;99.90;;;-141.84;52.78;18710.44;5072532;28;20204;-60
2024/03/03 09:59:21;;;;;;;16.80;13.75;;;13.00;99.90;;;-141.84;53.16;18724.66;5073259;28;20224;-60